GMMN/CMN METAR and TAF weather

Enter ICAO airport designator
Station Type Date Time Source
GMMN METAR 2022/12/08 12:30 UTC NOAA

GMMN 081230Z 22014KT 9999 SCT020 SCT030TCU 18/15 Q1008 NOSIG


Station Type Date Time Source
GMMN Decoded METAR 2022/12/08 12:30 UTC NOAA

Nouasseur, Morocco (GMMN) 33-22N 007-35W 206M
Dec 08, 2022 - 07:30 AM EST / 2022.12.08 1230 UTC
Wind: from the SW (220 degrees) at 16 MPH (14 KT):0
Visibility: greater than 7 mile(s):0
Sky conditions: partly cloudy
Weather: Towering cumulus clouds observed
Temperature: 64 F (18 C)
Dew Point: 59 F (15 C)
Relative Humidity: 82%
Pressure (altimeter): 29.77 in. Hg (1008 hPa)
ob: GMMN 081230Z 22014KT 9999 SCT020 SCT030TCU 18/15 Q1008 NOSIG
cycle: 12

Station Type Date Time Source
GMMN TAF 2022/12/08 12:34 UTC NOAA

TAF GMMN 081100Z 0812/0918 20012KT 9999 BKN020 SCT026 BKN080 PROB30
TEMPO 0813/0820 20016KT 4000 RA BKN013 SCT026TCU
TEMPO 0912/0918 24016G30KT 4000 SHRA SCT010 BKN016 SCT026TCU

Example: see airport list